createdAt,value
2022-11-27T00:01:43.531Z,101618.06
2022-11-27T00:05:53.622Z,101621.38
2022-11-27T00:09:56.747Z,101625.63
2022-11-27T00:14:01.462Z,101621.38
2022-11-27T00:18:04.730Z,101605.94
2022-11-27T00:22:07.794Z,101595.38
2022-11-27T00:26:11.303Z,101602.31
2022-11-27T00:30:16.187Z,101583.59
2022-11-27T00:34:19.217Z,101579.56
2022-11-27T00:38:22.268Z,101578.44
2022-11-27T00:42:25.306Z,101570.13
2022-11-27T00:46:31.599Z,101578.97
2022-11-27T00:50:34.690Z,101577.13
2022-11-27T00:54:38.295Z,101563.88
2022-11-27T00:58:41.646Z,101564.97
2022-11-27T01:02:46.160Z,101557.56
2022-11-27T01:06:49.298Z,101555.63
2022-11-27T01:10:54.916Z,101564.16
2022-11-27T01:14:58.274Z,101562.59
2022-11-27T01:19:03.753Z,101570.31
2022-11-27T01:23:06.843Z,101565.16
2022-11-27T01:27:09.854Z,101555.06
2022-11-27T01:31:15.257Z,101565.38
2022-11-27T01:35:19.791Z,101552.81
2022-11-27T01:39:24.166Z,101545.44
2022-11-27T01:43:42.941Z,101534.84
2022-11-27T01:47:49.089Z,101538.25
2022-11-27T01:51:57.536Z,101543.38
2022-11-27T01:56:02.828Z,101543.31
2022-11-27T02:00:08.310Z,101556.16
2022-11-27T02:04:15.884Z,101538.50
2022-11-27T02:08:20.465Z,101525.91
2022-11-27T02:12:26.729Z,101531.31
2022-11-27T02:16:36.437Z,101517.59
2022-11-27T02:20:48.438Z,101519.16
2022-11-27T02:25:02.570Z,101524.69
2022-11-27T02:29:09.048Z,101493.03
2022-11-27T02:33:14.043Z,101490.31
2022-11-27T02:37:22.881Z,101464.75
2022-11-27T02:41:29.673Z,101467.84
2022-11-27T02:45:37.873Z,101462.47
2022-11-27T02:49:44.353Z,101444.50
2022-11-27T02:53:51.750Z,101440.16
2022-11-27T02:57:58.148Z,101428.97
2022-11-27T03:02:08.071Z,101421.84
2022-11-27T03:06:13.770Z,101421.84
2022-11-27T03:10:21.690Z,101408.44
2022-11-27T03:14:25.522Z,101422.72
2022-11-27T03:18:39.628Z,101418.59
2022-11-27T03:22:42.714Z,101407.91
2022-11-27T03:26:46.160Z,101386.19
2022-11-27T03:30:49.312Z,101397.03
2022-11-27T03:34:54.114Z,101404.03
2022-11-27T03:38:57.425Z,101398.09
2022-11-27T03:43:06.943Z,101395.25
2022-11-27T03:47:21.108Z,101397.47
2022-11-27T03:51:34.574Z,101390.34
2022-11-27T03:55:44.388Z,101386.78
2022-11-27T03:59:50.508Z,101393.75
2022-11-27T04:03:53.693Z,101391.41
2022-11-27T04:07:58.211Z,101390.41
2022-11-27T04:12:01.301Z,101385.97
2022-11-27T04:16:05.202Z,101373.41
2022-11-27T04:20:09.453Z,101365.13
2022-11-27T04:24:13.854Z,101345.97
2022-11-27T04:28:18.185Z,101355.97
2022-11-27T04:32:21.236Z,101360.22
2022-11-27T04:36:24.293Z,101345.97
2022-11-27T04:40:28.712Z,101344.25
2022-11-27T04:44:31.761Z,101346.28
2022-11-27T04:48:34.776Z,101343.94
2022-11-27T04:52:37.987Z,101349.03
2022-11-27T04:56:42.401Z,101354.47
2022-11-27T05:00:45.477Z,101338.19
2022-11-27T05:04:48.711Z,101336.47
2022-11-27T05:08:51.763Z,101331.38
2022-11-27T05:12:56.169Z,101338.50
2022-11-27T05:17:00.748Z,101336.97
2022-11-27T05:21:06.658Z,101328.97
2022-11-27T05:25:10.541Z,101324.56
2022-11-27T05:29:15.809Z,101320.00
2022-11-27T05:33:19.856Z,101317.75
2022-11-27T05:37:22.914Z,101308.59
2022-11-27T05:41:26.151Z,101303.16
2022-11-27T05:45:30.573Z,101299.75
2022-11-27T05:49:33.613Z,101284.66
2022-11-27T05:53:36.935Z,101283.47
2022-11-27T05:57:40.283Z,101284.81
2022-11-27T06:01:44.834Z,101283.47
2022-11-27T06:05:47.935Z,101281.25
2022-11-27T06:09:51.011Z,101292.63
2022-11-27T06:13:54.055Z,101267.50
2022-11-27T06:17:58.488Z,101247.81
2022-11-27T06:22:01.550Z,101233.25
2022-11-27T06:26:12.808Z,101242.63
2022-11-27T06:30:16.287Z,101226.34
2022-11-27T06:34:20.649Z,101213.97
2022-11-27T06:38:24.551Z,101216.19
2022-11-27T06:42:30.106Z,101224.16
2022-11-27T06:46:33.188Z,101221.81
2022-11-27T06:50:37.599Z,101209.75
2022-11-27T06:54:41.043Z,101207.03
2022-11-27T06:58:44.822Z,101213.69
2022-11-27T07:02:47.864Z,101208.25
2022-11-27T07:06:52.483Z,101200.47
2022-11-27T07:10:55.778Z,101203.22
2022-11-27T07:15:02.895Z,101188.59
2022-11-27T07:19:08.682Z,101179.66
2022-11-27T07:23:13.309Z,101177.13
2022-11-27T07:27:17.015Z,101175.25
2022-11-27T07:31:22.529Z,101177.81
2022-11-27T07:35:25.719Z,101170.34
2022-11-27T07:40:00.399Z,101167.59
2022-11-27T07:43:53.214Z,101182.91
2022-11-27T07:47:56.282Z,101190.38
2022-11-27T07:51:59.340Z,101176.28
2022-11-27T07:56:03.801Z,101180.19
2022-11-27T08:00:08.183Z,101185.97
2022-11-27T08:04:11.275Z,101188.81
2022-11-27T08:08:14.424Z,101181.50
2022-11-27T08:12:18.839Z,101177.09
2022-11-27T08:16:21.979Z,101174.84
2022-11-27T08:20:25.565Z,101174.66
2022-11-27T08:24:28.664Z,101170.63
2022-11-27T08:28:33.103Z,101157.72
2022-11-27T08:32:39.410Z,101155.81
2022-11-27T08:36:42.490Z,101155.66
2022-11-27T08:40:45.587Z,101141.03
2022-11-27T08:44:51.069Z,101137.47
2022-11-27T08:48:56.461Z,101123.50
2022-11-27T08:53:02.360Z,101111.41
2022-11-27T08:57:08.348Z,101114.81
2022-11-27T09:01:17.387Z,101122.59
2022-11-27T09:05:20.590Z,101113.06
2022-11-27T09:09:23.773Z,101118.66
2022-11-27T09:13:26.914Z,101119.31
2022-11-27T09:17:31.574Z,101112.66
2022-11-27T09:21:34.672Z,101118.47
2022-11-27T09:25:39.737Z,101104.19
2022-11-27T09:29:42.877Z,101104.88
2022-11-27T09:33:47.671Z,101094.53
2022-11-27T09:37:50.726Z,101092.84
2022-11-27T09:41:57.063Z,101079.75
2022-11-27T09:46:08.387Z,101070.25
2022-11-27T09:50:16.584Z,101067.53
2022-11-27T09:54:24.870Z,101067.72
2022-11-27T09:58:37.691Z,101089.25
2022-11-27T10:02:43.030Z,101081.09
2022-11-27T10:07:05.579Z,101066.75
2022-11-27T10:11:21.352Z,101064.91
2022-11-27T10:15:37.694Z,101055.81
2022-11-27T10:19:51.845Z,101048.63
2022-11-27T10:24:07.079Z,101042.59
2022-11-27T10:28:21.028Z,101044.44
2022-11-27T10:32:54.082Z,101042.63
2022-11-27T10:36:53.290Z,101027.25
2022-11-27T10:41:09.833Z,101018.09
2022-11-27T10:45:22.687Z,101008.69
2022-11-27T10:49:25.906Z,100988.34
2022-11-27T10:53:32.752Z,100990.63
2022-11-27T10:57:58.896Z,100959.09
2022-11-27T11:02:05.719Z,100951.44
2022-11-27T11:06:21.767Z,100943.72
2022-11-27T11:10:29.625Z,100936.31
2022-11-27T11:14:34.705Z,100933.88
2022-11-27T11:18:43.870Z,100925.00
2022-11-27T11:22:48.077Z,100922.16
2022-11-27T11:26:53.711Z,100911.16
2022-11-27T11:31:00.365Z,100908.47
2022-11-27T11:35:08.726Z,100893.94
2022-11-27T11:39:23.988Z,100881.03
2022-11-27T11:43:29.357Z,100870.19
2022-11-27T11:47:34.302Z,100861.88
2022-11-27T11:52:12.842Z,100860.44
2022-11-27T11:56:29.314Z,100853.81
2022-11-27T12:01:11.388Z,100852.09
2022-11-27T12:05:20.876Z,100846.91
2022-11-27T12:09:35.835Z,100839.81
2022-11-27T12:13:52.876Z,100844.03
2022-11-27T12:18:01.543Z,100844.50
2022-11-27T12:22:17.694Z,100849.56
2022-11-27T12:26:28.076Z,100829.09
2022-11-27T12:30:41.790Z,100830.16
2022-11-27T12:34:58.485Z,100814.63
2022-11-27T12:39:11.876Z,100811.34
2022-11-27T12:43:21.988Z,100787.91
2022-11-27T12:47:38.673Z,100779.56
2022-11-27T12:51:47.826Z,100769.94
2022-11-27T12:56:02.161Z,100762.38
2022-11-27T13:00:08.338Z,100740.97
2022-11-27T13:04:20.726Z,100755.56
2022-11-27T13:08:28.070Z,100757.38
2022-11-27T13:12:38.184Z,100750.63
2022-11-27T13:16:46.754Z,100737.63
2022-11-27T13:20:52.970Z,100730.09
2022-11-27T13:24:57.467Z,100730.56
2022-11-27T13:29:04.742Z,100734.75
2022-11-27T13:33:08.216Z,100735.53
2022-11-27T13:37:27.442Z,100757.59
2022-11-27T13:41:34.765Z,100736.16
2022-11-27T13:45:39.313Z,100720.31
2022-11-27T13:49:43.587Z,100701.13
2022-11-27T13:53:46.804Z,100717.06
2022-11-27T13:57:53.868Z,100724.13
2022-11-27T14:02:01.417Z,100715.69
2022-11-27T14:06:18.528Z,100704.38
2022-11-27T14:10:24.168Z,100686.56
2022-11-27T14:14:30.157Z,100676.16
2022-11-27T14:18:34.678Z,100669.47
2022-11-27T14:23:09.953Z,100665.59
2022-11-27T14:27:17.613Z,100677.31
2022-11-27T14:31:26.810Z,100673.63
2022-11-27T14:35:31.288Z,100660.25
2022-11-27T14:39:36.823Z,100680.00
2022-11-27T14:43:39.977Z,100684.44
2022-11-27T14:47:48.593Z,100682.16
2022-11-27T14:51:54.143Z,100680.22
2022-11-27T14:55:59.633Z,100653.09
2022-11-27T15:00:17.036Z,100650.19
2022-11-27T15:04:28.483Z,100638.47
2022-11-27T15:08:35.843Z,100649.16
2022-11-27T15:12:46.431Z,100632.78
2022-11-27T15:16:52.402Z,100639.69
2022-11-27T15:20:56.723Z,100646.78
2022-11-27T15:25:02.230Z,100659.72
2022-11-27T15:29:05.327Z,100650.66
2022-11-27T15:33:27.639Z,100652.84
2022-11-27T15:37:34.300Z,100653.25
2022-11-27T15:41:43.504Z,100639.13
2022-11-27T15:45:47.283Z,100632.63
2022-11-27T15:49:50.700Z,100636.09
2022-11-27T15:53:53.809Z,100630.66
2022-11-27T15:57:58.231Z,100615.09
2022-11-27T16:02:01.353Z,100621.06
2022-11-27T16:06:06.142Z,100621.28
2022-11-27T16:10:10.064Z,100608.31
2022-11-27T16:14:14.599Z,100612.91
2022-11-27T16:18:18.984Z,100612.06
2022-11-27T16:22:23.305Z,100602.00
2022-11-27T16:26:28.313Z,100599.47
2022-11-27T16:30:33.501Z,100587.28
2022-11-27T16:34:37.182Z,100579.38
2022-11-27T16:38:41.429Z,100571.56
2022-11-27T16:42:45.460Z,100552.91
2022-11-27T16:46:52.330Z,100549.38
2022-11-27T16:51:03.795Z,100539.38
2022-11-27T16:55:07.762Z,100530.66
2022-11-27T16:59:13.528Z,100530.81
2022-11-27T17:03:18.029Z,100514.47
2022-11-27T17:07:21.228Z,100512.13
2022-11-27T17:11:26.793Z,100516.25
2022-11-27T17:15:30.103Z,100513.19
2022-11-27T17:19:34.655Z,100511.50
2022-11-27T17:23:38.166Z,100494.91
2022-11-27T17:27:41.824Z,100496.34
2022-11-27T17:31:45.419Z,100481.38
2022-11-27T17:35:51.150Z,100467.31
2022-11-27T17:39:54.210Z,100480.94
2022-11-27T17:43:57.356Z,100474.84
2022-11-27T17:48:01.996Z,100462.91
2022-11-27T17:52:07.023Z,100451.00
2022-11-27T17:56:14.064Z,100472.78
2022-11-27T18:00:18.745Z,100480.34
2022-11-27T18:04:22.058Z,100465.63
2022-11-27T18:08:26.487Z,100463.75
2022-11-27T18:12:29.535Z,100470.50
2022-11-27T18:16:36.685Z,100469.66
2022-11-27T18:20:39.903Z,100470.69
2022-11-27T18:24:44.772Z,100463.09
2022-11-27T18:28:48.138Z,100456.03
2022-11-27T18:32:51.223Z,100440.28
2022-11-27T18:36:57.288Z,100442.31
2022-11-27T18:41:08.216Z,100438.81
2022-11-27T18:45:31.337Z,100428.69
2022-11-27T18:49:34.826Z,100438.94
2022-11-27T18:53:38.705Z,100430.00
2022-11-27T18:57:43.802Z,100428.09
2022-11-27T19:01:47.096Z,100432.50
2022-11-27T19:05:50.310Z,100429.13
2022-11-27T19:09:53.739Z,100412.88
2022-11-27T19:13:58.669Z,100397.59
2022-11-27T19:18:01.764Z,100387.53
2022-11-27T19:22:04.939Z,100395.03
2022-11-27T19:26:09.212Z,100389.81
2022-11-27T19:30:14.758Z,100374.03
2022-11-27T19:34:17.792Z,100358.97
2022-11-27T19:38:20.939Z,100357.03
2022-11-27T19:42:24.025Z,100365.97
2022-11-27T19:46:30.478Z,100361.81
2022-11-27T19:50:33.967Z,100363.91
2022-11-27T19:54:37.514Z,100366.44
2022-11-27T19:58:41.178Z,100378.41
2022-11-27T20:02:45.961Z,100343.50
2022-11-27T20:06:51.891Z,100342.25
2022-11-27T20:10:54.971Z,100321.28
2022-11-27T20:14:59.614Z,100320.47
2022-11-27T20:19:06.209Z,100308.50
2022-11-27T20:23:12.464Z,100299.09
2022-11-27T20:27:16.007Z,100287.56
2022-11-27T20:31:23.090Z,100286.13
2022-11-27T20:35:27.743Z,100271.88
2022-11-27T20:39:30.983Z,100281.97
2022-11-27T20:43:34.062Z,100270.69
2022-11-27T20:47:37.217Z,100266.91
2022-11-27T20:51:42.326Z,100257.72
2022-11-27T20:55:46.533Z,100254.13
2022-11-27T20:59:49.607Z,100267.34
2022-11-27T21:03:54.492Z,100261.09
2022-11-27T21:07:59.260Z,100259.00
2022-11-27T21:12:02.332Z,100255.41
2022-11-27T21:16:09.561Z,100257.75
2022-11-27T21:20:14.196Z,100260.28
2022-11-27T21:24:18.893Z,100266.78
2022-11-27T21:28:21.964Z,100264.84
2022-11-27T21:32:26.717Z,100265.63
2022-11-27T21:36:32.351Z,100259.94
2022-11-27T21:40:37.886Z,100251.78
2022-11-27T21:44:42.325Z,100248.44
2022-11-27T21:48:47.014Z,100246.81
2022-11-27T21:52:50.095Z,100237.56
2022-11-27T21:56:57.197Z,100237.09
2022-11-27T22:01:00.405Z,100251.28
2022-11-27T22:05:03.563Z,100252.97
2022-11-27T22:09:13.425Z,100244.16
2022-11-27T22:13:19.786Z,100237.91
2022-11-27T22:17:24.533Z,100243.38
2022-11-27T22:21:30.328Z,100232.09
2022-11-27T22:25:34.299Z,100232.31
2022-11-27T22:29:38.777Z,100220.78
2022-11-27T22:33:42.254Z,100211.72
2022-11-27T22:37:45.465Z,100204.78
2022-11-27T22:41:48.970Z,100216.47
2022-11-27T22:45:53.436Z,100210.59
2022-11-27T22:49:56.769Z,100217.22
2022-11-27T22:54:00.032Z,100218.25
2022-11-27T22:58:03.440Z,100203.78
2022-11-27T23:02:08.552Z,100197.06
2022-11-27T23:06:12.954Z,100192.47
2022-11-27T23:10:16.091Z,100183.69
2022-11-27T23:14:19.388Z,100197.47
2022-11-27T23:18:23.797Z,100196.84
2022-11-27T23:22:27.187Z,100196.19
2022-11-27T23:26:30.503Z,100191.81
2022-11-27T23:30:34.091Z,100183.81
2022-11-27T23:34:38.503Z,100180.28
2022-11-27T23:38:41.710Z,100176.91
2022-11-27T23:42:44.744Z,100170.22
2022-11-27T23:46:48.159Z,100165.66
2022-11-27T23:50:52.538Z,100161.88
2022-11-27T23:54:55.598Z,100161.50
2022-11-27T23:59:00.067Z,100145.38
